Aspen, CO (81612)

6:16 AM MDT on September 02, 2014 (GMT -0600)
Tiehack Aspen Colorado | Change Station
CLOSE
Current Station
Personal Weather Station
Location: Aspen, CO
Elevation: 8500 ft
Nearby Weather Stations

Elev 8500 ft 39.20 °N, 106.85 °W | Updated 23 seconds ago

Clear
Clear
42.0 °F
Feels Like 42 °F
N
1.0
Wind Variable Wind from SSW
Gusts 5.0 mph

Today
High -- | Low -- °F
--% Chance of Precip.
Yesterday
High -- | Low -- °F
Precip. -- in
6:36 AM 7:36 PM
Waxing Crescent, 51% visible
Pressure 29.97 in
Visibility 10.0 miles
Clouds Clear
Windchill 42 °F
Dew Point 32 °F
Humidity 66%
Rainfall 0.00 in
Snow Depth 1 in , 0 in , 188 in
UV 0 out of 12
Pollen 9.20 out of 12
Air Quality Not available.
Flu Activity Not available.
METAR KASE 021153Z AUTO 20006KT 10SM CLR 06/00 A3028 RMK AO2 SLP148 T00610000 10100 20061 53001

More Conditions Fewer Conditions

Pressure 29.97 in
Visibility 10.0 miles
Clouds Clear
Windchill 42 °F
Dew Point 32 °F
Humidity 66%
Rainfall 0.00 in
Snow Depth 1 in , 0 in , 188 in
UV 0 out of 12
Pollen 9.20 out of 12
Air Quality Not available.
Flu Activity Not available.
METAR KASE 021153Z AUTO 20006KT 10SM CLR 06/00 A3028 RMK AO2 SLP148 T00610000 10100 20061 53001

More Conditions Fewer Conditions

10-Day Weather Forecast

Almanac

Astronomy

Sep. 02, 2014 Rise Set
Actual Time 6:36 AM MDT 7:36 PM MDT
Civil Twilight 6:09 AM MDT 8:03 PM MDT
Nautical Twilight 5:36 AM MDT 8:36 PM MDT
Astronomical Twilight 5:03 AM MDT 9:09 PM MDT
Moon 2:21 PM MDT No Moon Set
Length of Visible Light 13h 54m
Length of Day
12h 59m
Tomorrow will be 2m 27s shorter.
Waxing Crescent, 51% of the Moon is Illuminated
Today
Waxing Crescent
Sep 8
Full
Sep 15
Last Quarter
Sep 24
New
Oct 1
First Quarter

Today's Extremes

State Highs State Lows

Community

WunderPhotos

Upload Photos

1,749,638 photos uploaded!

WunderBlogs® & News

By Dr. Jeff Masters
Director of Meteorology, Weather Underground
By Kari Strenfel
Meteorologist, Weather Underground
By Christopher C. Burt
Weather Historian, Weather Underground
September 2, 2014
September 2, 2014
September 2, 2014

Nearby

Snow Depth

Station Depth Elevation
Kiln 1 in 9600 ft
Nast Lake 0 in 8700 ft
Independence Pass 188 in 10600 ft
Schofield Pass 0 in 10700 ft
Ivanhoe 1 in 10400 ft

Earthquake Activity

City Distance Mag. Time & Date
No recent earthquake activity has been reported nearby.
Minimum magnitude displayed is 2.5.

Coastal Water Temperatures

Place Temperature
No Stations Reporting

Nearby Weather Stations